Bonner Springs, Kansas
Current Conditions -  °F | °C
As of 9:54 PM on Monday 22 Dec 2014 (Local Time) from KMKC Reporting Station
Clear Clear  
Wind Chill: 40°   Ceiling: Unl
Heat Index: 44°   Visibility: 10mi
Dew Point: 38°   Wind: 8mph
Humidity: 79%   Direction: 240°WSW
Pressure: 29.52"   Gusts: NA
Location:  39.06°N, 94.88°W
Report Text: KMKC 230354Z 24007KT 10SM CLR 07/03 A2952 RMK AO2 SLP999 T00670033
Loading
Personal Weather Stations






























Interactive Weather Map New forecast layout! Learn more

10-Day Weather Forecast

Advertisements
Track Severe Weather on mobile